• Join FlightAware (Why Join?)
  • Login
  • US Flag GB Flag 
17:23 EST


 

Airport Tracker/Info


-or-


 

Live Flight TrackerFlight Track Log ✈ N240JK ✈ 20-Aug-2013 ✈ KPIE - KUES

Flight Track Log - Related Links

Times and Time Zones

All times are in EDT time to prevent confusion due to time zone crossing. See the N240JK flight status page for this flight to view local times or setup timezone preferences in your user account.

Time Position Orientation Groundspeed Altitude Reporting Facility
EDT Latitude Longitude Course Direction KTS MPH feet Rate Location/Type
13:34 27.9333 -82.7000 344° North 205 236 700  Level Tampa TRACON
13:35 27.9833 -82.7167 344° North 217 250 1,600 780 Climbing Tampa TRACON
13:36 28.0333 -82.7333 344° North 228 262 2,100 1,260 Climbing Tampa TRACON
13:37 28.1000 -82.7500 348° North 240 276 4,200 1,800 Climbing Tampa TRACON
13:38 28.1667 -82.7667 348° North 251 289 6,000 900 Climbing Tampa TRACON
13:39 28.2500 -82.8000 341° North 270 311 6,000 540 Level Tampa TRACON
13:41 28.3503 -82.8267 347° North 280 322 7,500 1,920 Climbing Jacksonville Center
13:42 28.4275 -82.8431 349° North 285 328 10,900 2,340 Climbing Jacksonville Center
13:43 28.5214 -82.8572 352° North 301 346 12,200 2,340 Climbing Jacksonville Center
13:44 28.6236 -82.8736 352° North 340 391 15,600 3,360 Climbing Jacksonville Center
13:45 28.7322 -82.8903 352° North 359 413 19,000 3,000 Climbing Jacksonville Center
13:46 28.8386 -82.9092 351° North 371 427 21,600 2,520 Climbing Jacksonville Center
13:47 28.9492 -82.9281 351° North 378 435 24,100 2,400 Climbing Jacksonville Center
13:48 29.0597 -82.9497 350° North 396 456 26,400 2,100 Climbing Jacksonville Center
13:49 29.1747 -82.9711 351° North 402 463 28,400 1,800 Climbing Jacksonville Center
13:50 29.2956 -82.9925 351° North 418 481 30,000 2,040 Climbing Jacksonville Center
13:51 29.4125 -83.0142 351° North 430 495 32,500 2,400 Climbing Jacksonville Center
13:52 29.5336 -83.0406 349° North 430 495 34,800 2,100 Climbing Jacksonville Center
13:53 29.6442 -83.0669 348° North 410 472 36,800 2,220 Climbing Jacksonville Center
13:54 29.7547 -83.1078 342° North 410 472 39,300 1,560 Climbing Jacksonville Center
13:55 29.8653 -83.1511 341° North 425 489 40,000 300 Climbing Jacksonville Center
13:56 29.9842 -83.1947 342° North 435 501 40,000  Level Jacksonville Center
13:57 30.0906 -83.2358 342° North 441 507 40,000  Level Jacksonville Center
13:58 30.2053 -83.2794 342° North 441 507 40,000  Level Jacksonville Center
13:59 30.3242 -83.3233 342° North 441 507 40,000  Level Jacksonville Center
14:00 30.4411 -83.3697 341° North 441 507 40,000  Level Jacksonville Center
14:01 30.5578 -83.4136 342° North 441 507 40,000  Level Jacksonville Center
14:02 30.6744 -83.4603 341° North 441 507 40,000  Level Jacksonville Center
14:03 30.7911 -83.5019 343° North 441 507 40,000  Level Jacksonville Center
14:04 30.9142 -83.5536 340° North 436 502 40,000  Level Jacksonville Center
14:06 31.2014 -83.6700 341° North 430 495 40,000  Level Atlanta Center
14:07 31.3183 -83.7131 343° North 430 495 40,000  Level Atlanta Center
14:08 31.4353 -83.7614 341° North 430 495 40,000  Level Atlanta Center
14:09 31.5461 -83.8097 340° North 435 501 40,000  Level Atlanta Center
14:10 31.6567 -83.8461 344° North 435 501 40,000  Level Atlanta Center
14:11 31.7944 -83.9069 339° North 468 539 40,000  Level Atlanta Center
14:12 31.9136 -83.9508 343° North 463 533 40,000  Level Atlanta Center
14:13 32.0306 -83.9972 341° North 453 521 40,000  Level Atlanta Center
14:14 32.1369 -84.0389 342° North 446 513 40,000  Level Atlanta Center
14:15 32.2539 -84.0856 341° North 441 507 40,000  Level Atlanta Center
14:16 32.3706 -84.1347 340° North 441 507 40,000  Level Atlanta Center
14:17 32.4875 -84.1792 342° North 441 507 40,000  Level Atlanta Center
14:18 32.6044 -84.2261 341° North 441 507 40,000  Level Atlanta Center
14:19 32.7211 -84.2758 340° North 441 507 40,000  Level Atlanta Center
14:20 32.8442 -84.3256 341° North 435 501 40,000  Level Atlanta Center
14:21 32.9589 -84.3731 341° North 435 501 40,000  Level Atlanta Center
14:22 33.0778 -84.4231 341° North 435 501 40,000  Level Atlanta Center
14:23 33.1922 -84.4708 341° North 435 501 40,000  Level Atlanta Center
14:24 33.2967 -84.5136 341° North 440 506 40,000  Level Atlanta Center
14:25 33.4133 -84.5614 341° North 440 506 40,000  Level Atlanta Center
14:26 33.5300 -84.6094 341° North 440 506 40,000  Level Atlanta Center
14:27 33.6486 -84.6578 341° North 446 513 40,000  Level Atlanta Center
14:28 33.7653 -84.7036 342° North 446 513 40,000  Level Atlanta Center
14:29 33.8797 -84.7544 340° North 446 513 40,000  Level Atlanta Center
14:30 34.0006 -84.8056 341° North 446 513 40,000  Level Atlanta Center
14:31 34.1317 -84.8594 341° North 451 519 40,000  Level Atlanta Center
14:32 34.2503 -84.9058 342° North 451 519 40,000  Level Atlanta Center
14:33 34.3669 -84.9522 342° North 446 513 40,000  Level Atlanta Center
14:34 34.4708 -84.9961 341° North 440 506 40,000  Level Atlanta Center
14:35 34.5894 -85.0481 340° North 446 513 40,000  Level Atlanta Center
14:36 34.7017 -85.0975 340° North 440 506 40,000  Level Atlanta Center
14:37 34.8181 -85.1469 341° North 435 501 40,000  Level Atlanta Center
14:38 34.9450 -85.1992 341° North 435 501 40,000  Level Atlanta Center
14:40 35.1625 -85.2925 341° North 434 499 40,000  Level Memphis Center
14:41 35.2772 -85.3442 340° North 434 499 40,000  Level Memphis Center
14:42 35.4061 -85.3822 346° North 434 499 40,000  Level Memphis Center
14:43 35.5306 -85.4156 348° North 440 506 40,000  Level Memphis Center
14:44 35.6528 -85.4492 347° North 440 506 40,000  Level Memphis Center
14:45 35.7772 -85.4853 347° North 440 506 40,000  Level Memphis Center
14:46 35.8994 -85.5189 347° North 445 512 40,000  Level Memphis Center
14:47 36.0217 -85.5553 346° North 445 512 40,000  Level Memphis Center
14:48 36.1442 -85.5944 346° North 445 512 40,000  Level Memphis Center
14:49 36.2175 -85.6156 347° North 452 520 40,000  Level Indianapolis Center
14:50 36.3425 -85.6497 348° North 457 526 40,000  Level Indianapolis Center
14:51 36.4711 -85.6553 358° North 467 537 40,000  Level Indianapolis Center
14:52 36.6014 -85.6506 North 468 539 40,000  Level Indianapolis Center
14:53 36.7311 -85.6503 360° North 466 536 40,000  Level Indianapolis Center
14:54 36.8711 -85.6500 360° North 468 539 40,000  Level Indianapolis Center
14:55 37.0014 -85.6514 360° North 465 535 40,000  Level Indianapolis Center
14:56 37.1328 -85.6500 360° North 468 539 40,000  Level Indianapolis Center
14:57 37.2639 -85.6506 360° North 468 539 40,000  Level Indianapolis Center
14:58 37.3892 -85.6522 359° North 467 537 40,000  Level Indianapolis Center
14:59 37.5450 -85.6556 359° North 464 534 40,000  Level Indianapolis Center
15:00 37.6728 -85.6644 357° North 462 532 40,000  Level Indianapolis Center
15:01 37.8006 -85.6703 358° North 459 528 40,000  Level Indianapolis Center
15:02 37.9289 -85.6803 356° North 461 531 40,000  Level Indianapolis Center
15:03 38.0569 -85.6931 356° North 460 529 40,000  Level Indianapolis Center
15:04 38.1828 -85.7217 350° North 461 531 40,000  Level Indianapolis Center
15:05 38.2919 -85.7964 332° Northwest 446 513 40,000  Level Indianapolis Center
15:06 38.4197 -85.8919 330° Northwest 447 514 40,000  Level Indianapolis Center
15:07 38.5278 -85.9692 331° Northwest 446 513 40,000  Level Indianapolis Center
15:08 38.6375 -86.0492 330° Northwest 451 519 40,000  Level Indianapolis Center
15:10 38.7447 -86.1306 329° Northwest 450 518 40,000  Level Indianapolis Center
15:11 38.8511 -86.2103 330° Northwest 445 512 40,000  Level Indianapolis Center
15:12 38.9739 -86.3028 330° Northwest 445 512 40,000  Level Indianapolis Center
15:13 39.0808 -86.3828 330° Northwest 444 511 40,000  Level Indianapolis Center
15:14 39.1872 -86.4647 329° Northwest 444 511 40,000  Level Indianapolis Center
15:15 39.2953 -86.5453 330° Northwest 446 513 40,000  Level Indianapolis Center
15:16 39.4025 -86.6269 330° Northwest 445 512 40,000  Level Indianapolis Center
15:17 39.5103 -86.7086 330° Northwest 446 513 40,000  Level Indianapolis Center
15:18 39.6181 -86.7911 329° Northwest 447 514 40,000  Level Indianapolis Center
15:19 39.7475 -86.8908 329° Northwest 447 514 40,000  Level Indianapolis Center
15:20 39.8553 -86.9731 330° Northwest 448 516 40,000  Level Indianapolis Center
15:21 39.9628 -87.0567 329° Northwest 449 517 40,000  Level Indianapolis Center
15:22 40.0708 -87.1397 330° Northwest 450 518 40,000  Level Indianapolis Center
15:23 40.1781 -87.2242 329° Northwest 450 518 40,000  Level Indianapolis Center
15:24 40.2861 -87.3069 330° Northwest 450 518 40,000 -660 Level Indianapolis Center
15:25 40.3942 -87.3911 329° Northwest 452 520 38,700 -1,500 Descending Indianapolis Center
15:26 40.5242 -87.4947 329° Northwest 456 525 36,900 -1,620 Descending Indianapolis Center
15:27 40.6344 -87.5839 328° Northwest 464 534 35,400 -1,500 Descending Indianapolis Center
15:28 40.7453 -87.6708 329° Northwest 464 534 33,900 -1,200 Descending Indianapolis Center
15:29 40.8547 -87.7586 329° Northwest 461 531 33,000 -480 Descending Indianapolis Center
15:30 40.9625 -87.8456 329° Northwest 456 525 33,000  Level Indianapolis Center
15:31 41.1086 -87.9622 329° Northwest 454 522 33,000  Level Chicago Center
15:32 41.2197 -88.0519 329° Northwest 462 532 33,000 -720 Level Chicago Center
15:33 41.3306 -88.1439 328° Northwest 464 534 31,600 -1,560 Descending Chicago Center
15:34 41.4431 -88.2344 329° Northwest 457 526 29,800 -2,340 Descending Chicago Center
15:36 41.5489 -88.3156 330° Northwest 438 504 26,800 -2,700 Descending Chicago Center
15:37 41.6686 -88.3136 North 431 496 24,200 -1,380 Descending Chicago Center
15:38 41.7850 -88.3133 360° North 420 483 24,000 -540 Descending Chicago Center
15:39 41.9033 -88.3122 360° North 424 488 23,100 -1,380 Descending Chicago Center
15:40 42.0478 -88.3122 360° North 433 498 21,200 -1,740 Descending Chicago Center
15:41 42.1681 -88.3111 360° North 433 498 19,600 -1,620 Descending Chicago Center
15:42 42.2900 -88.3094 North 436 502 17,900 -1,320 Descending Chicago Center
15:43 42.4111 -88.3075 North 428 493 16,900 -1,260 Descending Chicago Center
15:44 42.5178 -88.3067 360° North 383 441 15,300 -2,460 Descending Chicago Center
15:45 42.6297 -88.3042 North 348 400 11,900 -3,000 Descending Chicago Center
15:46 42.7158 -88.2933 North 312 359 9,100 -2,640 Descending Chicago Center
15:47 42.7967 -88.2794 North 293 337 6,500 -2,520 Descending Chicago Center
15:48 42.8758 -88.2667 North 287 330 3,900 -1,740 Descending Chicago Center
15:49 42.9481 -88.2517 North 276 318 3,000 -780 Descending Chicago Center
15:50 42.9975 -88.1967 39° Northeast 232 267 2,400 -480 Descending Chicago Center
15:51 43.0197 -88.1572 52° Northeast 188 216 2,100 -540 Descending Chicago Center
15:52 43.0361 -88.1994 298° West 153 176 1,400 -420 Descending Chicago Center
15:53 43.0383 -88.2525 273° West 152 175 1,300 -120 Descending Chicago Center
15:55 43.0333 -88.2333 North  Level FlightAware Approximate